createdAt,value
2022-11-25T00:04:37.116Z,5.08
2022-11-25T00:09:38.653Z,5.09
2022-11-25T00:14:39.961Z,5.09
2022-11-25T00:19:41.277Z,5.15
2022-11-25T00:24:42.704Z,5.10
2022-11-25T00:29:44.012Z,4.98
2022-11-25T00:34:45.357Z,5.02
2022-11-25T00:39:46.708Z,5.03
2022-11-25T00:44:48.042Z,5.00
2022-11-25T00:49:52.210Z,5.08
2022-11-25T00:54:53.959Z,5.12
2022-11-25T00:59:55.298Z,5.19
2022-11-25T01:04:56.844Z,5.29
2022-11-25T01:09:58.146Z,5.34
2022-11-25T01:14:59.453Z,5.37
2022-11-25T01:20:00.812Z,5.44
2022-11-25T01:25:02.155Z,5.44
2022-11-25T01:30:03.574Z,5.49
2022-11-25T01:35:05.357Z,5.47
2022-11-25T01:40:07.265Z,5.51
2022-11-25T01:45:26.676Z,5.64
2022-11-25T01:50:31.973Z,5.67
2022-11-25T01:55:35.025Z,5.69
2022-11-25T02:00:37.645Z,5.68
2022-11-25T02:05:56.359Z,5.76
2022-11-25T02:10:57.893Z,5.83
2022-11-25T02:15:59.252Z,5.86
2022-11-25T02:21:00.661Z,5.80
2022-11-25T02:26:02.845Z,5.79
2022-11-25T02:31:04.479Z,5.78
2022-11-25T02:36:10.626Z,5.77
2022-11-25T02:41:14.995Z,5.83
2022-11-25T02:46:22.220Z,5.85
2022-11-25T02:51:25.527Z,5.88
2022-11-25T02:56:31.741Z,6.00
2022-11-25T03:01:35.055Z,6.13
2022-11-25T03:06:36.525Z,6.21
2022-11-25T03:11:56.569Z,6.34
2022-11-25T03:16:57.946Z,6.65
2022-11-25T03:21:59.304Z,6.60
2022-11-25T03:27:00.623Z,6.51
2022-11-25T03:32:05.482Z,6.54
2022-11-25T03:37:10.722Z,6.53
2022-11-25T03:42:12.323Z,6.49
2022-11-25T03:47:13.646Z,6.42
2022-11-25T03:52:14.972Z,6.35
2022-11-25T03:57:16.312Z,6.32
2022-11-25T04:02:17.709Z,6.43
2022-11-25T04:07:19.091Z,6.49
2022-11-25T04:12:39.230Z,6.57
2022-11-25T04:17:40.658Z,6.57
2022-11-25T04:22:42.160Z,6.59
2022-11-25T04:27:43.795Z,6.57
2022-11-25T04:32:45.114Z,6.47
2022-11-25T04:37:46.482Z,6.22
2022-11-25T04:42:47.788Z,6.21
2022-11-25T04:47:49.172Z,6.17
2022-11-25T04:52:50.869Z,6.10
2022-11-25T04:57:52.145Z,6.05
2022-11-25T05:02:53.506Z,6.02
2022-11-25T05:07:54.982Z,6.02
2022-11-25T05:12:56.342Z,6.03
2022-11-25T05:17:57.681Z,6.09
2022-11-25T05:22:58.997Z,6.19
2022-11-25T05:28:00.632Z,6.26
2022-11-25T05:33:01.974Z,6.32
2022-11-25T05:38:04.269Z,6.36
2022-11-25T05:43:05.578Z,6.38
2022-11-25T05:48:06.912Z,6.37
2022-11-25T05:53:08.235Z,6.30
2022-11-25T05:58:09.572Z,6.32
2022-11-25T06:03:11.040Z,6.30
2022-11-25T06:08:12.536Z,6.25
2022-11-25T06:13:13.871Z,6.17
2022-11-25T06:18:16.194Z,6.05
2022-11-25T06:23:17.527Z,6.00
2022-11-25T06:28:18.903Z,5.99
2022-11-25T06:33:20.289Z,5.96
2022-11-25T06:38:21.610Z,5.93
2022-11-25T06:43:22.917Z,5.97
2022-11-25T06:48:24.216Z,5.93
2022-11-25T06:53:26.170Z,5.97
2022-11-25T06:58:35.890Z,5.98
2022-11-25T07:03:37.795Z,5.96
2022-11-25T07:08:39.604Z,6.02
2022-11-25T07:13:41.028Z,6.19
2022-11-25T07:18:42.547Z,6.25
2022-11-25T07:23:44.627Z,6.33
2022-11-25T07:28:46.028Z,6.28
2022-11-25T07:33:47.978Z,6.25
2022-11-25T07:38:49.358Z,6.23
2022-11-25T07:43:52.674Z,6.18
2022-11-25T07:48:55.087Z,6.15
2022-11-25T07:53:56.891Z,6.14
2022-11-25T07:58:58.275Z,6.06
2022-11-25T08:03:59.704Z,5.99
2022-11-25T08:09:01.015Z,6.00
2022-11-25T08:14:04.326Z,6.20
2022-11-25T08:19:06.919Z,6.99
2022-11-25T08:24:08.351Z,7.08
2022-11-25T08:29:12.560Z,7.00
2022-11-25T08:34:21.947Z,6.81
2022-11-25T08:39:54.159Z,6.51
2022-11-25T08:44:45.373Z,6.82
2022-11-25T08:49:47.293Z,7.43
2022-11-25T08:54:49.030Z,8.88
2022-11-25T08:59:50.374Z,9.43
2022-11-25T09:04:51.818Z,9.34
2022-11-25T09:09:53.155Z,9.40
2022-11-25T09:14:54.477Z,9.48
2022-11-25T09:19:55.796Z,10.29
2022-11-25T09:24:57.190Z,9.90
2022-11-25T09:29:58.568Z,10.76
2022-11-25T09:34:59.916Z,11.20
2022-11-25T09:40:01.693Z,10.81
2022-11-25T09:45:21.889Z,11.14
2022-11-25T09:50:35.412Z,12.58
2022-11-25T09:55:39.970Z,12.83
2022-11-25T10:00:42.612Z,12.74
2022-11-25T10:05:47.638Z,12.11
2022-11-25T10:10:53.078Z,12.39
2022-11-25T10:15:57.875Z,12.95
2022-11-25T10:20:59.363Z,13.44
2022-11-25T10:26:14.643Z,14.22
2022-11-25T10:31:17.567Z,15.77
2022-11-25T10:36:21.755Z,15.58
2022-11-25T10:41:25.111Z,16.48
2022-11-25T10:47:11.604Z,15.84
2022-11-25T10:52:00.631Z,13.39
2022-11-25T10:57:02.963Z,13.90
2022-11-25T11:02:10.301Z,14.51
2022-11-25T11:07:14.018Z,16.38
2022-11-25T11:12:19.543Z,14.18
2022-11-25T11:17:29.620Z,13.36
2022-11-25T11:22:35.486Z,13.74
2022-11-25T11:27:37.708Z,14.70
2022-11-25T11:32:40.552Z,13.64
2022-11-25T11:37:44.283Z,13.50
2022-11-25T11:42:52.165Z,14.38
2022-11-25T11:47:53.978Z,14.13
2022-11-25T11:52:58.173Z,13.28
2022-11-25T11:58:06.085Z,14.71
2022-11-25T12:03:10.268Z,13.81
2022-11-25T12:08:26.324Z,12.76
2022-11-25T12:13:33.321Z,12.71
2022-11-25T12:18:53.365Z,12.48
2022-11-25T12:24:18.006Z,12.61
2022-11-25T12:29:25.175Z,12.44
2022-11-25T12:34:31.966Z,13.96
2022-11-25T12:39:40.907Z,14.97
2022-11-25T12:45:00.766Z,15.19
2022-11-25T12:50:02.224Z,13.82
2022-11-25T12:55:09.762Z,13.06
2022-11-25T13:00:40.369Z,12.35
2022-11-25T13:05:53.562Z,12.12
2022-11-25T13:10:58.038Z,12.15
2022-11-25T13:16:00.961Z,13.06
2022-11-25T13:21:06.712Z,12.92
2022-11-25T13:26:26.562Z,12.50
2022-11-25T13:31:32.192Z,12.70
2022-11-25T13:36:47.356Z,13.53
2022-11-25T13:41:50.104Z,13.62
2022-11-25T13:46:53.020Z,14.04
2022-11-25T13:51:59.424Z,13.79
2022-11-25T13:57:21.043Z,13.34
2022-11-25T14:02:28.555Z,13.31
2022-11-25T14:07:34.230Z,13.47
2022-11-25T14:12:54.056Z,13.08
2022-11-25T14:18:06.027Z,13.00
2022-11-25T14:23:07.347Z,12.77
2022-11-25T14:28:14.242Z,12.59
2022-11-25T14:33:17.145Z,12.39
2022-11-25T14:38:18.492Z,12.35
2022-11-25T14:43:27.174Z,12.21
2022-11-25T14:48:28.518Z,12.11
2022-11-25T14:53:30.523Z,11.98
2022-11-25T14:58:31.867Z,11.86
2022-11-25T15:03:33.342Z,11.61
2022-11-25T15:08:42.531Z,11.42
2022-11-25T15:13:47.674Z,11.21
2022-11-25T15:18:50.591Z,10.96
2022-11-25T15:23:51.919Z,10.70
2022-11-25T15:28:54.215Z,10.52
2022-11-25T15:33:57.842Z,10.50
2022-11-25T15:39:17.615Z,10.36
2022-11-25T15:44:26.505Z,9.99
2022-11-25T15:49:27.910Z,9.86
2022-11-25T15:54:31.287Z,9.75
2022-11-25T15:59:40.854Z,9.57
2022-11-25T16:04:42.184Z,9.32
2022-11-25T16:09:50.372Z,9.32
2022-11-25T16:14:51.679Z,9.17
2022-11-25T16:19:53.001Z,8.80
2022-11-25T16:25:01.781Z,8.61
2022-11-25T16:30:06.613Z,8.31
2022-11-25T16:35:15.249Z,8.13
2022-11-25T16:40:17.569Z,8.07
2022-11-25T16:45:28.441Z,8.15
2022-11-25T16:50:29.847Z,8.35
2022-11-25T16:55:31.282Z,8.37
2022-11-25T17:00:32.606Z,8.31
2022-11-25T17:05:34.610Z,8.36
2022-11-25T17:10:35.952Z,8.39
2022-11-25T17:15:37.991Z,8.30
2022-11-25T17:20:39.461Z,8.26
2022-11-25T17:25:42.197Z,8.25
2022-11-25T17:30:44.281Z,8.26
2022-11-25T17:35:46.134Z,8.36
2022-11-25T17:40:47.869Z,8.27
2022-11-25T17:45:49.231Z,8.25
2022-11-25T17:50:50.589Z,8.13
2022-11-25T17:55:53.122Z,7.90
2022-11-25T18:00:54.515Z,7.79
2022-11-25T18:05:55.928Z,7.63
2022-11-25T18:10:58.037Z,7.70
2022-11-25T18:15:59.463Z,7.69
2022-11-25T18:21:00.858Z,7.51
2022-11-25T18:26:02.246Z,7.53
2022-11-25T18:31:05.139Z,7.57
2022-11-25T18:36:06.748Z,7.53
2022-11-25T18:41:12.980Z,7.64
2022-11-25T18:46:14.592Z,7.61
2022-11-25T18:51:16.015Z,7.55
2022-11-25T18:56:18.116Z,7.58
2022-11-25T19:01:22.099Z,7.58
2022-11-25T19:06:23.528Z,7.44
2022-11-25T19:11:36.723Z,7.41
2022-11-25T19:16:38.235Z,7.38
2022-11-25T19:21:39.634Z,7.38
2022-11-25T19:26:43.289Z,7.24
2022-11-25T19:31:45.126Z,7.21
2022-11-25T19:36:46.476Z,7.12
2022-11-25T19:41:48.069Z,7.35
2022-11-25T19:47:14.429Z,7.43
2022-11-25T19:52:21.998Z,7.30
2022-11-25T19:57:24.013Z,6.91
2022-11-25T20:02:26.279Z,6.51
2022-11-25T20:07:29.404Z,6.20
2022-11-25T20:12:30.750Z,6.04
2022-11-25T20:17:33.494Z,5.84
2022-11-25T20:22:36.158Z,5.76
2022-11-25T20:27:37.672Z,5.48
2022-11-25T20:32:39.156Z,5.34
2022-11-25T20:37:51.315Z,5.35
2022-11-25T20:42:52.995Z,5.31
2022-11-25T20:47:54.381Z,5.17
2022-11-25T20:52:55.726Z,5.08
2022-11-25T20:57:57.079Z,5.04
2022-11-25T21:02:58.415Z,5.09
2022-11-25T21:08:00.945Z,4.97
2022-11-25T21:13:09.385Z,4.88
2022-11-25T21:18:11.131Z,4.84
2022-11-25T21:23:29.094Z,4.65
2022-11-25T21:28:31.208Z,4.49
2022-11-25T21:33:32.557Z,4.42
2022-11-25T21:38:33.951Z,4.29
2022-11-25T21:43:39.604Z,4.18
2022-11-25T21:48:40.987Z,4.06
2022-11-25T21:53:42.346Z,4.00
2022-11-25T21:58:43.834Z,3.93
2022-11-25T22:03:45.175Z,3.86
2022-11-25T22:08:46.553Z,3.73
2022-11-25T22:13:48.564Z,3.64
2022-11-25T22:18:50.006Z,3.57
2022-11-25T22:23:51.381Z,3.44
2022-11-25T22:28:53.072Z,3.44
2022-11-25T22:33:54.780Z,3.35
2022-11-25T22:38:57.258Z,3.30
2022-11-25T22:43:58.629Z,3.23
2022-11-25T22:48:59.974Z,3.15
2022-11-25T22:54:01.303Z,3.12
2022-11-25T22:59:02.639Z,2.99
2022-11-25T23:04:04.194Z,2.93
2022-11-25T23:09:10.120Z,3.06
2022-11-25T23:14:12.026Z,3.07
2022-11-25T23:19:15.308Z,3.27
2022-11-25T23:24:16.978Z,3.21
2022-11-25T23:29:18.301Z,3.11
2022-11-25T23:34:19.701Z,2.97
2022-11-25T23:39:25.526Z,2.89
2022-11-25T23:44:28.063Z,2.89
2022-11-25T23:49:49.846Z,2.82
2022-11-25T23:54:52.449Z,2.65
2022-11-25T23:59:53.845Z,2.52
